Time;durP1;ratioP1;P1;durP2;ratioP2;P2;SDS_P1;SDS_P2;PMS_P1;PMS_P2;Temp;Humidity;BMP_temperature;BMP_pressure;BME280_temperature;BME280_humidity;BME280_pressure;Samples;Min_cycle;Max_cycle;Signal;HPM_P1;HPM_P2
2022/04/19 00:00:17;;;;;;;;;;;;;;;23.60;60.79;96515.91;626892;226;62880;-65
2022/04/19 00:02:45;;;;;;;;;;;;;;;23.58;59.96;96512.73;626916;226;64887;-65
2022/04/19 00:05:12;;;;;;;;;;;;;;;23.59;61.30;96508.94;626853;226;65339;-65
2022/04/19 00:07:41;;;;;;;;;;;;;;;23.58;61.41;96512.73;626853;226;63143;-65
2022/04/19 00:10:09;;;;;;;;;;;;;;;23.58;61.90;96518.09;626884;226;67147;-65
2022/04/19 00:12:37;;;;;;;;;;;;;;;23.56;61.11;96506.08;626892;226;64943;-65
2022/04/19 00:15:05;;;;;;;;;;;;;;;23.56;61.47;96514.12;626887;226;63202;-65
2022/04/19 00:17:33;;;;;;;;;;;;;;;23.55;61.66;96507.97;626953;226;67173;-65
2022/04/19 00:20:00;;;;;;;;;;;;;;;23.55;61.06;96507.97;626844;226;67171;-65
2022/04/19 00:22:31;;;;;;;;;;;;;;;23.54;61.10;96505.57;626912;226;62970;-65
2022/04/19 00:24:59;;;;;;;;;;;;;;;23.54;60.85;96506.36;626888;226;64770;-65
2022/04/19 00:27:27;;;;;;;;;;;;;;;23.54;60.62;96502.89;626862;226;67120;-65
2022/04/19 00:29:55;;;;;;;;;;;;;;;23.54;60.55;96502.89;626896;226;63248;-65
2022/04/19 00:32:23;;;;;;;;;;;;;;;23.54;61.04;96511.72;626892;226;65851;-65
2022/04/19 00:34:52;;;;;;;;;;;;;;;23.52;60.82;96497.84;626876;226;67068;-65
2022/04/19 00:37:21;;;;;;;;;;;;;;;23.52;60.29;96497.84;626901;226;65546;-65
2022/04/19 00:39:49;;;;;;;;;;;;;;;23.51;60.80;96496.23;626866;226;67169;-65
2022/04/19 00:42:17;;;;;;;;;;;;;;;23.51;61.46;96504.28;626626;226;67122;-65
2022/04/19 00:44:45;;;;;;;;;;;;;;;23.50;60.81;96505.38;624615;227;65363;-65
2022/04/19 00:47:15;;;;;;;;;;;;;;;23.49;61.27;96504.59;624581;227;67057;-65
2022/04/19 00:49:45;;;;;;;;;;;;;;;23.49;61.19;96501.13;624592;227;66445;-65
2022/04/19 00:52:13;;;;;;;;;;;;;;;23.48;62.92;96504.88;624605;224;65617;-65
2022/04/19 00:54:46;;;;;;;;;;;;;;;23.47;61.68;96505.98;624557;227;64537;-65
2022/04/19 00:57:14;;;;;;;;;;;;;;;23.47;61.94;96514.03;624670;227;67134;-65
2022/04/19 00:59:42;;;;;;;;;;;;;;;23.47;62.00;96511.35;624568;227;62728;-65
2022/04/19 01:02:10;;;;;;;;;;;;;;;23.45;62.13;96506.27;624566;227;64801;-65
2022/04/19 01:04:38;;;;;;;;;;;;;;;23.44;61.29;96507.38;624596;227;67531;-65
2022/04/19 01:07:06;;;;;;;;;;;;;;;23.44;61.31;96506.59;624588;227;65392;-65
2022/04/19 01:09:34;;;;;;;;;;;;;;;23.44;61.77;96506.59;624659;227;64531;-65
2022/04/19 01:14:48;;;;;;;;;;;;;;;23.43;62.31;96502.30;624613;227;63980;-65
2022/04/19 01:17:16;;;;;;;;;;;;;;;23.43;61.63;96504.98;622212;227;67200;-66
2022/04/19 01:19:45;;;;;;;;;;;;;;;23.42;62.23;96508.77;624591;227;67731;-66
2022/04/19 01:22:14;;;;;;;;;;;;;;;23.41;62.83;96504.50;624604;226;44147;-71
2022/04/19 01:24:43;;;;;;;;;;;;;;;23.41;62.00;96507.98;624659;226;43409;-72
2022/04/19 01:27:13;;;;;;;;;;;;;;;23.40;62.81;96510.95;624552;227;67437;-71
2022/04/19 01:29:42;;;;;;;;;;;;;;;23.40;61.90;96506.37;624598;227;65266;-72
2022/04/19 01:32:11;;;;;;;;;;;;;;;23.39;62.26;96499.43;624597;227;67238;-71
2022/04/19 01:34:38;;;;;;;;;;;;;;;23.38;61.81;96503.22;624608;227;65076;-65
2022/04/19 01:37:09;;;;;;;;;;;;;;;23.38;62.32;96502.40;624637;226;43971;-66
2022/04/19 01:42:23;;;;;;;;;;;;;;;23.38;61.57;96507.76;624570;227;67408;-67
2022/04/19 01:44:53;;;;;;;;;;;;;;;23.38;62.78;96505.08;624625;226;42833;-67
2022/04/19 01:47:20;;;;;;;;;;;;;;;23.36;61.72;96500.03;624555;227;67954;-67
2022/04/19 01:49:50;;;;;;;;;;;;;;;23.36;61.98;96499.24;624567;227;67142;-67
2022/04/19 01:52:17;;;;;;;;;;;;;;;23.34;61.80;96493.38;624643;227;65378;-72
2022/04/19 01:54:45;;;;;;;;;;;;;;;23.35;61.78;96493.06;624558;227;64455;-72
2022/04/19 01:57:15;;;;;;;;;;;;;;;23.34;61.12;96494.16;624572;225;46850;-72
2022/04/19 01:59:50;;;;;;;;;;;;;;;23.33;62.16;96497.16;624614;227;66356;-72
2022/04/19 02:02:19;;;;;;;;;;;;;;;23.33;61.67;96497.16;624541;225;42965;-67
2022/04/19 02:04:49;;;;;;;;;;;;;;;23.32;61.55;96488.30;624632;227;66681;-67
2022/04/19 02:07:17;;;;;;;;;;;;;;;23.31;61.98;96488.61;624653;227;65925;-67
2022/04/19 02:09:47;;;;;;;;;;;;;;;23.31;61.80;96488.61;624613;226;43714;-67
2022/04/19 02:12:15;;;;;;;;;;;;;;;23.30;62.49;96487.00;624615;227;67161;-67
2022/04/19 02:14:47;;;;;;;;;;;;;;;23.30;61.76;96489.69;624334;225;47679;-67
2022/04/19 02:17:18;;;;;;;;;;;;;;;23.29;62.54;96483.53;624582;227;67249;-67
2022/04/19 02:19:46;;;;;;;;;;;;;;;23.29;62.43;96477.38;624683;227;66894;-67
2022/04/19 02:22:14;;;;;;;;;;;;;;;23.28;62.16;96473.92;624687;227;62957;-66
2022/04/19 02:24:42;;;;;;;;;;;;;;;23.28;62.03;96479.28;624636;227;66853;-67
2022/04/19 02:27:09;;;;;;;;;;;;;;;23.28;62.72;96479.28;624562;227;67311;-66
2022/04/19 02:29:37;;;;;;;;;;;;;;;23.26;62.49;96479.56;624620;227;65392;-67
2022/04/19 02:32:05;;;;;;;;;;;;;;;23.25;61.82;96483.34;624626;227;65939;-66
2022/04/19 02:34:33;;;;;;;;;;;;;;;23.25;61.66;96480.67;624645;227;67340;-66
2022/04/19 02:37:01;;;;;;;;;;;;;;;23.25;62.00;96482.56;624618;227;62722;-67
2022/04/19 02:39:29;;;;;;;;;;;;;;;23.25;63.11;96480.67;624578;227;67610;-66
2022/04/19 02:41:56;;;;;;;;;;;;;;;23.19;62.72;96475.69;624607;227;64539;-71
2022/04/19 02:44:25;;;;;;;;;;;;;;;23.22;62.21;96478.59;626870;226;63917;-71
2022/04/19 02:46:57;;;;;;;;;;;;;;;23.23;61.97;96480.16;626721;225;48318;-71
2022/04/19 02:49:25;;;;;;;;;;;;;;;23.23;61.55;96479.37;626879;226;67766;-71
2022/04/19 02:51:55;;;;;;;;;;;;;;;23.22;61.90;96483.16;626920;226;63237;-71
2022/04/19 02:54:22;;;;;;;;;;;;;;;23.20;61.56;96480.77;626836;226;66945;-70
2022/04/19 02:56:50;;;;;;;;;;;;;;;23.21;62.50;96476.19;626906;226;64954;-71
2022/04/19 02:59:17;;;;;;;;;;;;;;;23.19;62.23;96479.19;626907;226;65282;-70
2022/04/19 03:01:45;;;;;;;;;;;;;;;23.19;62.20;96473.83;626913;226;65069;-70
2022/04/19 03:04:12;;;;;;;;;;;;;;;23.20;61.78;96486.13;626883;226;66898;-70
2022/04/19 03:06:40;;;;;;;;;;;;;;;23.19;62.01;96487.23;626873;226;65117;-70
2022/04/19 03:09:08;;;;;;;;;;;;;;;23.19;61.86;96484.55;626878;226;64771;-70
2022/04/19 03:11:36;;;;;;;;;;;;;;;23.18;61.38;96493.66;626959;226;67064;-70
2022/04/19 03:14:06;;;;;;;;;;;;;;;23.18;62.56;96496.34;627004;225;45090;-71
2022/04/19 03:16:34;;;;;;;;;;;;;;;23.17;62.69;96497.45;626891;226;64829;-70
2022/04/19 03:19:02;;;;;;;;;;;;;;;23.16;61.69;96501.23;626922;226;65116;-70
2022/04/19 03:21:30;;;;;;;;;;;;;;;23.16;63.05;96495.87;626885;226;66330;-70
2022/04/19 03:29:29;;;;;;;;;;;;;;;23.14;61.89;96507.98;626917;226;66118;-66
2022/04/19 03:31:59;;;;;;;;;;;;;;;23.14;62.21;96511.45;626883;226;64974;-67
2022/04/19 03:34:27;;;;;;;;;;;;;;;23.13;61.52;96509.84;626871;226;67670;-66
2022/04/19 03:36:54;;;;;;;;;;;;;;;23.12;62.19;96510.94;626901;226;62879;-67
2022/04/19 03:39:22;;;;;;;;;;;;;;;23.12;61.67;96505.58;622792;226;66407;-66
2022/04/19 03:41:51;;;;;;;;;;;;;;;23.11;61.93;96504.00;626968;226;66635;-67
2022/04/19 03:44:18;;;;;;;;;;;;;;;23.10;62.11;96505.08;626798;226;65399;-66
2022/04/19 03:49:32;;;;;;;;;;;;;;;23.10;62.15;96512.33;626865;226;67755;-66
2022/04/19 03:52:00;;;;;;;;;;;;;;;23.09;61.77;96513.42;626846;226;63061;-68
2022/04/19 03:54:27;;;;;;;;;;;;;;;23.09;63.03;96513.42;626908;226;64819;-66
2022/04/19 03:56:55;;;;;;;;;;;;;;;23.09;63.03;96516.89;626852;226;64772;-66
2022/04/19 03:59:22;;;;;;;;;;;;;;;23.08;62.20;96518.00;626889;226;65294;-66
2022/04/19 04:01:50;;;;;;;;;;;;;;;23.07;62.42;96519.06;626900;226;64550;-66
2022/04/19 04:04:18;;;;;;;;;;;;;;;23.08;63.05;96517.17;626888;226;67357;-66
2022/04/19 04:06:46;;;;;;;;;;;;;;;23.07;61.99;96513.71;626933;226;65099;-66
2022/04/19 04:09:14;;;;;;;;;;;;;;;23.06;62.02;96514.02;626859;226;66876;-67
2022/04/19 04:11:42;;;;;;;;;;;;;;;23.06;62.65;96522.06;626877;226;67811;-66
2022/04/19 04:14:11;;;;;;;;;;;;;;;23.04;61.74;96516.98;626760;225;42199;-66
2022/04/19 04:16:39;;;;;;;;;;;;;;;23.04;62.26;96517.77;626873;226;66014;-66
2022/04/19 04:19:09;;;;;;;;;;;;;;;23.04;62.94;96515.09;626944;226;67003;-66
2022/04/19 04:21:37;;;;;;;;;;;;;;;23.03;62.36;96515.41;622800;226;66110;-66
2022/04/19 04:24:05;;;;;;;;;;;;;;;23.04;62.35;96525.03;626863;226;66800;-68
2022/04/19 04:26:34;;;;;;;;;;;;;;;23.02;62.13;96519.95;626858;225;45505;-65
2022/04/19 04:29:02;;;;;;;;;;;;;;;23.02;62.17;96527.20;626877;226;63839;-65
2022/04/19 04:31:29;;;;;;;;;;;;;;;23.02;62.44;96530.67;626879;226;65098;-66
2022/04/19 04:33:57;;;;;;;;;;;;;;;23.01;61.68;96528.30;626942;226;67488;-66
2022/04/19 04:36:25;;;;;;;;;;;;;;;23.01;61.88;96533.66;626809;226;62697;-65
2022/04/19 04:38:53;;;;;;;;;;;;;;;23.01;61.52;96537.12;626813;226;64841;-65
2022/04/19 04:41:22;;;;;;;;;;;;;;;23.00;62.40;96540.91;626606;225;44351;-66
2022/04/19 04:43:49;;;;;;;;;;;;;;;23.01;62.45;96539.02;626808;226;63139;-65
2022/04/19 04:51:49;;;;;;;;;;;;;;;23.00;61.97;96545.48;626779;226;65956;-65
2022/04/19 04:54:16;;;;;;;;;;;;;;;23.00;62.20;96545.48;626849;226;67329;-65
2022/04/19 04:56:44;;;;;;;;;;;;;;;23.01;62.94;96549.73;626906;226;66666;-65
2022/04/19 04:59:11;;;;;;;;;;;;;;;23.00;62.53;96550.84;626659;226;65307;-65
2022/04/19 05:01:39;;;;;;;;;;;;;;;23.00;63.49;96556.98;626936;226;64879;-65
2022/04/19 05:04:06;;;;;;;;;;;;;;;23.00;63.24;96558.88;626668;226;65799;-65
2022/04/19 05:06:34;;;;;;;;;;;;;;;23.02;63.29;96559.36;626155;226;63252;-65
2022/04/19 05:09:01;;;;;;;;;;;;;;;23.01;63.64;96569.28;626844;226;67314;-65
2022/04/19 05:11:29;;;;;;;;;;;;;;;23.01;63.56;96563.14;626434;226;66991;-65
2022/04/19 05:13:57;;;;;;;;;;;;;;;23.01;64.34;96557.78;620364;226;62159;-66
2022/04/19 05:16:25;;;;;;;;;;;;;;;23.00;63.07;96562.34;619698;229;67589;-65
2022/04/19 05:18:52;;;;;;;;;;;;;;;23.00;63.32;96562.34;619665;229;67057;-66
2022/04/19 05:21:20;;;;;;;;;;;;;;;23.01;62.60;96563.14;619343;229;65452;-65
2022/04/19 05:23:47;;;;;;;;;;;;;;;23.02;63.00;96564.72;619720;229;66921;-65
2022/04/19 05:26:17;;;;;;;;;;;;;;;23.03;62.53;96563.64;619685;228;43797;-65
2022/04/19 05:28:44;;;;;;;;;;;;;;;23.03;62.36;96560.97;619748;229;64295;-65
2022/04/19 05:31:12;;;;;;;;;;;;;;;23.03;62.90;96567.11;619684;229;67967;-65
2022/04/19 05:33:40;;;;;;;;;;;;;;;23.05;63.10;96572.16;619682;229;66925;-67
2022/04/19 05:36:08;;;;;;;;;;;;;;;23.04;61.98;96571.37;619710;229;63930;-68
2022/04/19 05:38:35;;;;;;;;;;;;;;;23.05;61.25;96574.84;619553;229;64821;-65
2022/04/19 05:41:03;;;;;;;;;;;;;;;23.07;63.07;96571.88;619756;229;67066;-65
2022/04/19 05:43:31;;;;;;;;;;;;;;;23.07;61.57;96580.71;619683;229;65491;-65
2022/04/19 05:45:58;;;;;;;;;;;;;;;23.07;62.05;96578.03;619681;229;67103;-65
2022/04/19 05:48:26;;;;;;;;;;;;;;;23.09;62.58;96580.43;619697;229;65580;-65
2022/04/19 05:50:53;;;;;;;;;;;;;;;23.09;61.88;96583.11;619708;229;65311;-65
2022/04/19 05:53:22;;;;;;;;;;;;;;;23.09;62.62;96581.22;619600;229;64601;-65
2022/04/19 05:55:49;;;;;;;;;;;;;;;23.10;61.79;96582.02;619742;229;67999;-69
2022/04/19 05:58:18;;;;;;;;;;;;;;;23.12;61.10;96585.20;619015;229;62771;-66
2022/04/19 06:00:46;;;;;;;;;;;;;;;23.12;61.49;96585.98;623774;226;64869;-66
2022/04/19 06:05:59;;;;;;;;;;;;;;;23.14;61.54;96583.81;626650;226;63007;-67
2022/04/19 06:08:27;;;;;;;;;;;;;;;23.15;61.66;96584.61;626836;226;67471;-66
2022/04/19 06:10:56;;;;;;;;;;;;;;;23.16;62.08;96587.00;626599;225;43820;-67
2022/04/19 06:13:24;;;;;;;;;;;;;;;23.18;60.70;96590.16;626812;226;63246;-65
2022/04/19 06:15:51;;;;;;;;;;;;;;;23.18;60.79;96590.16;626867;226;67308;-65
2022/04/19 06:18:19;;;;;;;;;;;;;;;23.20;62.37;96585.31;626777;226;67746;-67
2022/04/19 06:20:53;;;;;;;;;;;;;;;23.20;61.99;96582.62;626818;225;42462;-66
2022/04/19 06:23:18;;;;;;;;;;;;;;;23.23;60.38;96587.39;626818;225;64579;-66
2022/04/19 06:25:45;;;;;;;;;;;;;;;23.25;60.65;96585.22;625563;226;66888;-66
2022/04/19 06:28:13;;;;;;;;;;;;;;;23.25;60.60;96593.27;624790;226;65212;-67
2022/04/19 06:30:46;;;;;;;;;;;;;;;23.29;60.37;96589.98;625671;226;47326;-66
2022/04/19 06:33:14;;;;;;;;;;;;;;;23.31;60.30;96588.60;626785;226;67653;-66
2022/04/19 06:35:42;;;;;;;;;;;;;;;23.31;58.19;96593.17;626905;226;62762;-66
2022/04/19 06:38:10;;;;;;;;;;;;;;;23.33;59.91;96593.69;626841;226;66983;-67
2022/04/19 06:40:37;;;;;;;;;;;;;;;23.35;61.11;96596.84;626758;226;67114;-65
2022/04/19 06:43:05;;;;;;;;;;;;;;;23.34;60.53;96601.41;624458;226;65216;-65
2022/04/19 06:45:51;;;;;;;;;;;;;;;23.37;59.98;96594.66;621313;227;37881;-65
2022/04/19 06:48:20;;;;;;;;;;;;;;;23.38;58.90;96597.06;624446;225;45544;-66
2022/04/19 06:50:48;;;;;;;;;;;;;;;23.41;59.58;96603.73;624584;227;66047;-65
2022/04/19 06:53:15;;;;;;;;;;;;;;;23.42;59.58;96598.05;624582;227;64947;-63
2022/04/19 06:55:47;;;;;;;;;;;;;;;23.43;58.52;96610.35;624430;225;44235;-65
2022/04/19 06:58:15;;;;;;;;;;;;;;;23.46;59.29;96608.97;624517;227;63229;-64
2022/04/19 07:00:43;;;;;;;;;;;;;;;23.46;59.32;96612.47;624574;227;67071;-65
2022/04/19 07:03:10;;;;;;;;;;;;;;;23.50;59.07;96609.98;624533;227;64924;-65
2022/04/19 07:05:56;;;;;;;;;;;;;;;23.52;55.94;96610.48;624740;227;37483;-65
2022/04/19 07:08:24;;;;;;;;;;;;;;;23.58;56.70;96613.86;624433;227;67570;-65
2022/04/19 07:10:51;;;;;;;;;;;;;;;23.60;56.72;96612.48;624567;227;67170;-65
2022/04/19 07:13:24;;;;;;;;;;;;;;;23.62;57.44;96610.27;621146;227;46669;-65
2022/04/19 07:15:53;;;;;;;;;;;;;;;23.66;56.62;96605.91;624513;227;67759;-66
2022/04/19 07:18:23;;;;;;;;;;;;;;;23.68;57.83;96608.28;624612;227;67391;-67
2022/04/19 07:26:38;;;;;;;;;;;;;;;23.76;56.93;96610.30;624448;227;66804;-78
2022/04/19 07:29:06;;;;;;;;;;;;;;;23.78;58.13;96607.33;624429;227;62974;-64
2022/04/19 07:31:34;;;;;;;;;;;;;;;23.75;59.07;96608.72;624479;227;67163;-64
2022/04/19 07:34:03;;;;;;;;;;;;;;;23.76;59.31;96609.52;624431;225;44555;-65
2022/04/19 07:36:31;;;;;;;;;;;;;;;23.77;58.30;96616.48;624570;227;63431;-64
2022/04/19 07:38:58;;;;;;;;;;;;;;;23.78;59.12;96615.38;624447;227;67156;-68
2022/04/19 07:41:31;;;;;;;;;;;;;;;23.78;57.42;96610.02;624563;225;48708;-65
2022/04/19 07:43:58;;;;;;;;;;;;;;;23.81;57.56;96601.37;624456;226;65098;-64
2022/04/19 07:46:26;;;;;;;;;;;;;;;23.83;58.93;96612.60;624553;227;65729;-64
2022/04/19 07:48:54;;;;;;;;;;;;;;;23.83;58.27;96609.92;624603;227;67104;-64
2022/04/19 07:51:21;;;;;;;;;;;;;;;23.82;58.35;96609.13;624535;227;66019;-64
2022/04/19 07:53:49;;;;;;;;;;;;;;;23.84;57.53;96608.81;624576;227;66815;-64
2022/04/19 07:56:17;;;;;;;;;;;;;;;23.86;57.47;96609.31;624534;227;67671;-64
2022/04/19 07:58:47;;;;;;;;;;;;;;;23.90;57.22;96615.69;624418;227;65262;-65
2022/04/19 08:01:14;;;;;;;;;;;;;;;23.93;56.90;96615.09;624525;225;64788;-64
2022/04/19 08:03:42;;;;;;;;;;;;;;;23.94;57.39;96616.67;624620;227;66891;-65
2022/04/19 08:06:10;;;;;;;;;;;;;;;23.94;57.91;96611.30;624530;227;65785;-64
2022/04/19 08:08:38;;;;;;;;;;;;;;;23.94;58.00;96608.62;624549;227;67898;-64
2022/04/19 08:11:05;;;;;;;;;;;;;;;23.95;57.78;96612.88;624499;227;66988;-64
2022/04/19 08:13:33;;;;;;;;;;;;;;;23.96;58.69;96613.70;624480;225;63348;-65
2022/04/19 08:16:00;;;;;;;;;;;;;;;23.98;56.90;96612.30;624624;227;67337;-68
2022/04/19 08:18:28;;;;;;;;;;;;;;;23.99;58.18;96611.20;624575;227;66930;-69
2022/04/19 08:20:57;;;;;;;;;;;;;;;24.00;57.54;96606.63;624480;227;63192;-68
2022/04/19 08:23:24;;;;;;;;;;;;;;;24.02;57.68;96610.59;624474;227;67093;-68
2022/04/19 08:25:54;;;;;;;;;;;;;;;24.04;57.49;96610.31;624339;225;47823;-65
2022/04/19 08:28:22;;;;;;;;;;;;;;;24.05;57.58;96618.05;624494;227;66182;-68
2022/04/19 08:30:49;;;;;;;;;;;;;;;24.08;57.35;96611.28;624493;227;67301;-65
2022/04/19 08:33:19;;;;;;;;;;;;;;;24.07;57.46;96607.81;624543;225;44020;-65
2022/04/19 08:35:46;;;;;;;;;;;;;;;24.08;58.30;96605.91;624500;227;63186;-67
2022/04/19 08:38:14;;;;;;;;;;;;;;;24.09;56.83;96600.26;624548;227;67276;-66
2022/04/19 08:40:41;;;;;;;;;;;;;;;24.10;57.57;96603.73;624626;227;66775;-66
2022/04/19 08:43:11;;;;;;;;;;;;;;;24.10;58.26;96601.05;624539;227;63105;-67
2022/04/19 08:45:38;;;;;;;;;;;;;;;24.10;58.56;96596.47;624581;227;67343;-67
2022/04/19 08:48:09;;;;;;;;;;;;;;;24.11;58.05;96595.36;624500;227;65086;-65
2022/04/19 08:50:38;;;;;;;;;;;;;;;24.11;56.64;96595.36;624511;227;63110;-66
2022/04/19 08:58:39;;;;;;;;;;;;;;;24.13;57.78;96587.81;624528;227;65407;-68
2022/04/19 09:01:06;;;;;;;;;;;;;;;24.14;57.59;96593.97;624526;227;67272;-68
2022/04/19 09:03:34;;;;;;;;;;;;;;;24.14;57.45;96588.59;624507;227;66978;-68
2022/04/19 09:06:03;;;;;;;;;;;;;;;24.14;58.23;96592.10;624587;227;63256;-69
2022/04/19 09:08:31;;;;;;;;;;;;;;;24.13;57.76;96593.18;624544;227;66974;-70
2022/04/19 09:11:06;;;;;;;;;;;;;;;24.14;58.72;96597.47;624528;227;67041;-69
2022/04/19 09:13:34;;;;;;;;;;;;;;;24.15;57.92;96585.63;624356;225;64022;-67
2022/04/19 09:16:06;;;;;;;;;;;;;;;24.17;57.66;96582.62;624521;227;67422;-69
2022/04/19 09:18:37;;;;;;;;;;;;;;;24.18;57.06;96583.44;624491;227;67034;-68
2022/04/19 09:21:05;;;;;;;;;;;;;;;24.19;57.30;96585.02;624485;227;65660;-68
2022/04/19 09:23:34;;;;;;;;;;;;;;;24.17;57.60;96579.94;624478;227;64921;-68
2022/04/19 09:26:05;;;;;;;;;;;;;;;24.18;57.77;96583.44;624504;227;67021;-68
2022/04/19 09:28:34;;;;;;;;;;;;;;;24.19;57.76;96587.70;624524;227;64013;-69
2022/04/19 09:31:02;;;;;;;;;;;;;;;24.19;57.70;96583.12;624462;227;67215;-68
2022/04/19 09:33:30;;;;;;;;;;;;;;;24.19;58.08;96585.02;624528;227;66797;-68
2022/04/19 09:36:02;;;;;;;;;;;;;;;24.20;58.13;96589.28;624578;227;65139;-68
2022/04/19 09:38:52;;;;;;;;;;;;;;;24.20;57.52;96590.09;624391;227;67224;-69
2022/04/19 09:41:30;;;;;;;;;;;;;;;24.21;58.05;96582.83;622866;227;64889;-68
2022/04/19 09:44:05;;;;;;;;;;;;;;;24.21;57.92;96580.94;623922;226;63275;-68
2022/04/19 09:46:33;;;;;;;;;;;;;;;24.21;58.64;96583.62;624488;227;67259;-68
2022/04/19 09:49:00;;;;;;;;;;;;;;;24.23;58.38;96584.12;624493;227;66886;-68
2022/04/19 09:51:31;;;;;;;;;;;;;;;24.21;57.18;96582.83;624535;227;65254;-68
2022/04/19 09:53:59;;;;;;;;;;;;;;;24.24;58.45;96588.38;618928;227;67932;-68
2022/04/19 09:56:28;;;;;;;;;;;;;;;24.24;58.33;96588.38;617470;230;66817;-67
2022/04/19 09:58:55;;;;;;;;;;;;;;;24.25;58.24;96581.91;617804;227;62998;-68
2022/04/19 10:09:34;;;;;;;;;;;;;;;24.27;58.44;96571.66;624607;227;64993;-67
2022/04/19 10:12:02;;;;;;;;;;;;;;;24.28;58.73;96577.82;624590;227;65029;-68
2022/04/19 10:14:31;;;;;;;;;;;;;;;24.29;58.12;96566.00;624221;227;63250;-68
2022/04/19 10:16:58;;;;;;;;;;;;;;;24.29;58.09;96557.95;619974;227;64886;-68
2022/04/19 10:19:27;;;;;;;;;;;;;;;24.31;58.78;96558.45;617284;230;64605;-68
2022/04/19 10:21:58;;;;;;;;;;;;;;;24.31;58.23;96559.23;617242;227;65820;-68
2022/04/19 10:24:31;;;;;;;;;;;;;;;24.30;57.68;96562.21;617420;230;66891;-68
2022/04/19 10:26:55;;;;;;;;;;;;;;;24.34;58.14;96568.58;617198;230;66901;-68
2022/04/19 10:29:25;;;;;;;;;;;;;;;24.34;58.26;96560.52;617416;230;65253;-68
2022/04/19 10:32:07;;;;;;;;;;;;;;;24.35;58.08;96564.78;617423;230;64979;-68
2022/04/19 10:34:36;;;;;;;;;;;;;;;24.34;58.58;96566.69;617869;227;66653;-67
2022/04/19 10:37:15;;;;;;;;;;;;;;;24.36;58.65;96558.30;624576;227;65321;-68
2022/04/19 10:39:47;;;;;;;;;;;;;;;24.36;58.09;96561.81;624595;227;64662;-68
2022/04/19 10:42:34;;;;;;;;;;;;;;;24.38;57.83;96564.17;624224;226;66802;-68
2022/04/19 10:45:13;;;;;;;;;;;;;;;24.39;58.33;96555.04;622019;226;63340;-67
2022/04/19 10:47:54;;;;;;;;;;;;;;;24.40;57.21;96553.93;619733;229;67291;-67
2022/04/19 10:50:33;;;;;;;;;;;;;;;24.40;57.88;96564.67;619559;229;66990;-67
2022/04/19 10:53:03;;;;;;;;;;;;;;;24.43;57.65;96564.06;619670;229;65643;-72
2022/04/19 10:55:31;;;;;;;;;;;;;;;24.40;57.91;96567.36;619654;226;66985;-66
2022/04/19 10:58:09;;;;;;;;;;;;;;;24.41;57.89;96566.25;621505;226;64864;-65
2022/04/19 11:00:38;;;;;;;;;;;;;;;24.43;58.34;96580.17;626845;226;63410;-65
2022/04/19 11:03:06;;;;;;;;;;;;;;;24.43;57.84;96577.49;626769;226;67222;-65
2022/04/19 11:05:36;;;;;;;;;;;;;;;24.44;58.07;96576.41;626824;226;67144;-65
2022/04/19 11:08:21;;;;;;;;;;;;;;;24.44;58.31;96579.09;626761;226;65264;-67
2022/04/19 11:10:50;;;;;;;;;;;;;;;24.46;58.02;96581.49;626711;226;65251;-72
2022/04/19 11:13:19;;;;;;;;;;;;;;;24.44;58.41;96581.78;626844;226;64538;-65
2022/04/19 11:16:03;;;;;;;;;;;;;;;24.44;57.54;96586.36;626821;226;65562;-71
2022/04/19 11:18:33;;;;;;;;;;;;;;;24.44;57.17;96581.78;626583;225;67968;-71
2022/04/19 11:21:04;;;;;;;;;;;;;;;24.46;57.36;96589.55;626646;226;67359;-70
2022/04/19 11:23:43;;;;;;;;;;;;;;;24.46;57.59;96586.86;626830;226;63132;-72
2022/04/19 11:26:27;;;;;;;;;;;;;;;24.45;57.83;96585.29;626789;226;67277;-71
2022/04/19 11:29:11;;;;;;;;;;;;;;;24.45;57.37;96579.91;626720;226;64800;-70
2022/04/19 11:31:46;;;;;;;;;;;;;;;24.46;57.77;96584.18;626764;226;63367;-70
2022/04/19 11:34:15;;;;;;;;;;;;;;;24.48;56.67;96571.25;626774;226;64901;-70
2022/04/19 11:36:43;;;;;;;;;;;;;;;24.50;56.28;96577.91;626829;226;66851;-71
2022/04/19 11:47:17;;;;;;;;;;;;;;;24.55;57.10;96580.48;619304;225;65355;-70
2022/04/19 11:49:44;;;;;;;;;;;;;;;24.56;57.33;96590.11;626874;226;67178;-70
2022/04/19 11:52:15;;;;;;;;;;;;;;;24.56;57.28;96592.80;626808;226;66834;-68
2022/04/19 11:54:42;;;;;;;;;;;;;;;24.58;57.39;96597.85;626689;226;65272;-68
2022/04/19 11:57:10;;;;;;;;;;;;;;;24.59;57.49;96610.99;626711;226;66652;-68
2022/04/19 11:59:39;;;;;;;;;;;;;;;24.60;58.33;96617.16;626727;226;64675;-68
2022/04/19 12:02:20;;;;;;;;;;;;;;;24.62;57.60;96620.34;626826;226;65311;-72
2022/04/19 12:04:54;;;;;;;;;;;;;;;24.63;57.68;96626.50;626823;226;64523;-70
2022/04/19 12:07:24;;;;;;;;;;;;;;;24.64;57.70;96617.36;626736;226;64561;-68
2022/04/19 12:09:52;;;;;;;;;;;;;;;24.64;57.93;96620.84;626481;226;65281;-68
2022/04/19 12:12:20;;;;;;;;;;;;;;;24.65;58.07;96616.25;626118;226;66998;-68
2022/04/19 12:14:56;;;;;;;;;;;;;;;24.66;58.69;96621.30;626722;226;66727;-68
2022/04/19 12:17:22;;;;;;;;;;;;;;;24.68;58.71;96624.48;626646;226;65586;-69
2022/04/19 12:19:51;;;;;;;;;;;;;;;24.68;58.57;96616.43;626842;226;67004;-68
2022/04/19 12:22:20;;;;;;;;;;;;;;;24.69;58.33;96615.34;626508;225;64344;-69
2022/04/19 12:24:50;;;;;;;;;;;;;;;24.70;58.74;96613.45;626805;226;65553;-69
2022/04/19 12:27:19;;;;;;;;;;;;;;;24.69;58.61;96612.66;626818;226;66894;-69
2022/04/19 12:29:58;;;;;;;;;;;;;;;24.71;58.46;96623.87;626724;225;66438;-68
2022/04/19 12:32:26;;;;;;;;;;;;;;;24.72;58.95;96619.33;626879;226;63030;-67
2022/04/19 12:35:07;;;;;;;;;;;;;;;24.71;58.50;96629.25;626824;226;64711;-67
2022/04/19 12:37:34;;;;;;;;;;;;;;;24.72;58.01;96625.48;626726;226;67120;-70
2022/04/19 12:40:03;;;;;;;;;;;;;;;24.73;58.75;96620.90;626802;226;63113;-68
2022/04/19 12:42:32;;;;;;;;;;;;;;;24.73;58.84;96621.69;626795;226;64764;-67
2022/04/19 12:45:04;;;;;;;;;;;;;;;24.74;58.80;96617.10;626279;225;64633;-68
2022/04/19 12:47:32;;;;;;;;;;;;;;;24.74;58.82;96611.73;626610;225;65458;-67
2022/04/19 12:50:01;;;;;;;;;;;;;;;24.74;58.06;96609.83;626759;226;64684;-67
2022/04/19 12:52:32;;;;;;;;;;;;;;;24.74;59.02;96607.14;626416;225;66688;-65
2022/04/19 12:55:01;;;;;;;;;;;;;;;24.76;58.88;96604.16;626809;226;63248;-65
2022/04/19 12:57:28;;;;;;;;;;;;;;;24.75;59.11;96607.96;626748;226;66684;-65
2022/04/19 12:59:57;;;;;;;;;;;;;;;24.75;59.09;96607.96;626886;226;64221;-65
2022/04/19 13:02:25;;;;;;;;;;;;;;;24.75;59.44;96603.38;626761;226;65751;-66
2022/04/19 13:04:53;;;;;;;;;;;;;;;24.76;58.88;96601.48;626727;226;64519;-69
2022/04/19 13:12:53;;;;;;;;;;;;;;;24.77;58.44;96593.13;626661;226;64503;-70
2022/04/19 13:15:20;;;;;;;;;;;;;;;24.76;59.09;96594.20;626802;226;67089;-72
2022/04/19 13:17:48;;;;;;;;;;;;;;;24.75;58.89;96587.25;626764;226;65346;-67
2022/04/19 13:20:15;;;;;;;;;;;;;;;24.77;58.74;96593.13;626733;226;66887;-66
2022/04/19 13:22:42;;;;;;;;;;;;;;;24.79;58.63;96588.22;626795;226;66763;-65
2022/04/19 13:25:10;;;;;;;;;;;;;;;24.80;58.11;96583.66;626753;226;65255;-66
2022/04/19 13:27:37;;;;;;;;;;;;;;;24.81;57.75;96579.86;626728;226;66688;-66
2022/04/19 13:30:07;;;;;;;;;;;;;;;24.82;58.66;96576.06;626870;226;66774;-66
2022/04/19 13:32:35;;;;;;;;;;;;;;;24.84;57.83;96573.08;626784;226;63155;-64
2022/04/19 13:35:02;;;;;;;;;;;;;;;24.84;58.84;96567.70;626712;226;66905;-67
2022/04/19 13:40:17;;;;;;;;;;;;;;;24.85;58.06;96563.91;626706;226;63060;-66
2022/04/19 13:42:44;;;;;;;;;;;;;;;24.86;58.53;96579.73;626091;226;66916;-66
2022/04/19 13:45:12;;;;;;;;;;;;;;;24.88;58.92;96580.23;624537;227;66350;-65
2022/04/19 13:47:39;;;;;;;;;;;;;;;24.86;59.06;96582.42;624476;227;65462;-65
2022/04/19 13:50:07;;;;;;;;;;;;;;;24.86;58.61;96577.05;624534;227;66788;-66
2022/04/19 13:52:35;;;;;;;;;;;;;;;24.87;58.43;96580.53;624454;227;67050;-66
2022/04/19 13:55:03;;;;;;;;;;;;;;;24.89;59.28;96581.02;624394;227;62991;-68